createdAt,value
2022-09-21T00:01:29.424Z,64.21
2022-09-21T00:03:58.397Z,64.61
2022-09-21T00:06:27.853Z,63.87
2022-09-21T00:08:55.329Z,64.17
2022-09-21T00:11:26.103Z,63.56
2022-09-21T00:14:04.607Z,63.19
2022-09-21T00:16:34.224Z,62.88
2022-09-21T00:19:01.081Z,63.13
2022-09-21T00:21:28.293Z,63.33
2022-09-21T00:23:55.420Z,63.61
2022-09-21T00:26:24.608Z,64.05
2022-09-21T00:28:56.579Z,64.00
2022-09-21T00:31:23.984Z,63.84
2022-09-21T00:33:51.241Z,63.99
2022-09-21T00:36:20.519Z,63.95
2022-09-21T00:38:52.844Z,63.73
2022-09-21T00:41:20.217Z,64.26
2022-09-21T00:44:08.346Z,65.17
2022-09-21T00:46:39.089Z,65.46
2022-09-21T00:49:06.186Z,64.98
2022-09-21T00:51:32.964Z,64.81
2022-09-21T00:54:06.807Z,64.44
2022-09-21T00:56:35.232Z,65.37
2022-09-21T00:59:02.995Z,64.49
2022-09-21T01:01:30.945Z,64.72
2022-09-21T01:03:57.910Z,65.00
2022-09-21T01:06:25.277Z,64.66
2022-09-21T01:08:56.115Z,65.10
2022-09-21T01:11:34.435Z,65.17
2022-09-21T01:14:04.164Z,65.29
2022-09-21T01:16:39.948Z,65.40
2022-09-21T01:19:31.454Z,64.52
2022-09-21T01:22:05.903Z,63.59
2022-09-21T01:24:39.441Z,63.80
2022-09-21T01:27:38.132Z,64.02
2022-09-21T01:30:11.855Z,64.09
2022-09-21T01:32:48.385Z,63.34
2022-09-21T01:35:21.505Z,63.91
2022-09-21T01:37:56.990Z,63.15
2022-09-21T01:40:34.545Z,63.80
2022-09-21T01:43:05.579Z,63.69
2022-09-21T01:45:40.774Z,63.28
2022-09-21T01:48:08.347Z,63.00
2022-09-21T01:50:40.743Z,63.28
2022-09-21T01:53:18.420Z,63.12
2022-09-21T01:55:59.656Z,63.08
2022-09-21T01:59:06.587Z,63.25
2022-09-21T02:01:39.960Z,62.85
2022-09-21T02:04:11.326Z,63.27
2022-09-21T02:06:41.446Z,63.29
2022-09-21T02:09:10.554Z,63.44
2022-09-21T02:11:43.860Z,64.03
2022-09-21T02:14:21.491Z,64.05
2022-09-21T02:17:00.766Z,64.34
2022-09-21T02:19:48.103Z,64.55
2022-09-21T02:22:29.319Z,64.42
2022-09-21T02:25:04.822Z,65.00
2022-09-21T02:27:53.160Z,64.78
2022-09-21T02:30:22.381Z,64.33
2022-09-21T02:32:54.992Z,64.22
2022-09-21T02:35:43.747Z,63.47
2022-09-21T02:38:17.944Z,63.90
2022-09-21T02:40:56.664Z,63.76
2022-09-21T02:43:32.095Z,63.61
2022-09-21T02:46:09.751Z,64.07
2022-09-21T02:48:47.066Z,63.66
2022-09-21T02:51:19.186Z,63.75
2022-09-21T02:53:47.913Z,64.05
2022-09-21T02:56:16.002Z,64.02
2022-09-21T02:58:51.018Z,63.76
2022-09-21T03:01:19.135Z,63.72
2022-09-21T03:03:45.912Z,63.92
2022-09-21T03:06:12.662Z,64.33
2022-09-21T03:08:39.647Z,64.21
2022-09-21T03:11:06.469Z,64.18
2022-09-21T03:13:33.529Z,64.56
2022-09-21T03:16:02.685Z,63.94
2022-09-21T03:18:30.539Z,64.50
2022-09-21T03:20:57.316Z,64.38
2022-09-21T03:23:24.058Z,63.51
2022-09-21T03:25:52.327Z,64.41
2022-09-21T03:28:19.828Z,64.67
2022-09-21T03:30:47.907Z,64.24
2022-09-21T03:33:15.177Z,64.59
2022-09-21T03:35:42.492Z,64.14
2022-09-21T03:38:09.490Z,64.40
2022-09-21T03:40:36.284Z,64.78
2022-09-21T03:43:03.512Z,65.12
2022-09-21T03:45:30.212Z,64.47
2022-09-21T03:47:58.736Z,64.19
2022-09-21T03:50:28.418Z,64.20
2022-09-21T03:52:56.386Z,63.94
2022-09-21T03:55:23.668Z,64.06
2022-09-21T03:57:50.328Z,64.37
2022-09-21T04:00:17.777Z,64.60
2022-09-21T04:02:44.614Z,64.25
2022-09-21T04:05:14.828Z,63.54
2022-09-21T04:07:42.995Z,63.49
2022-09-21T04:10:13.015Z,64.05
2022-09-21T04:12:44.197Z,63.84
2022-09-21T04:15:15.973Z,63.62
2022-09-21T04:17:42.655Z,63.90
2022-09-21T04:20:09.664Z,63.66
2022-09-21T04:22:41.089Z,63.68
2022-09-21T04:25:10.664Z,64.05
2022-09-21T04:27:37.561Z,64.45
2022-09-21T04:30:05.653Z,64.15
2022-09-21T04:32:32.348Z,64.27
2022-09-21T04:34:59.044Z,64.47
2022-09-21T04:37:25.870Z,64.19
2022-09-21T04:39:52.669Z,64.22
2022-09-21T04:42:19.452Z,64.24
2022-09-21T04:44:46.126Z,64.12
2022-09-21T04:47:12.906Z,63.78
2022-09-21T04:49:39.639Z,63.30
2022-09-21T04:52:06.315Z,63.41
2022-09-21T04:54:33.041Z,64.41
2022-09-21T04:56:59.796Z,64.24
2022-09-21T04:59:26.497Z,63.97
2022-09-21T05:01:53.211Z,64.26
2022-09-21T05:04:20.031Z,64.17
2022-09-21T05:06:46.849Z,64.29
2022-09-21T05:09:32.248Z,63.96
2022-09-21T05:11:58.990Z,63.57
2022-09-21T05:14:25.659Z,63.28
2022-09-21T05:16:52.392Z,63.39
2022-09-21T05:19:19.068Z,63.23
2022-09-21T05:21:46.415Z,63.44
2022-09-21T05:24:15.943Z,63.20
2022-09-21T05:26:42.648Z,63.15
2022-09-21T05:29:09.692Z,63.50
2022-09-21T05:31:48.413Z,63.25
2022-09-21T05:34:44.159Z,63.21
2022-09-21T05:37:37.825Z,63.67
2022-09-21T05:40:06.281Z,64.47
2022-09-21T05:42:33.432Z,64.64
2022-09-21T05:45:00.598Z,64.06
2022-09-21T05:47:40.536Z,64.01
2022-09-21T05:50:16.577Z,64.08
2022-09-21T05:52:49.023Z,64.44
2022-09-21T05:55:25.137Z,63.82
2022-09-21T05:58:40.697Z,63.19
2022-09-21T06:01:10.393Z,62.55
2022-09-21T06:03:38.171Z,60.82
2022-09-21T06:06:04.951Z,59.83
2022-09-21T06:08:31.834Z,58.44
2022-09-21T06:10:58.669Z,56.96
2022-09-21T06:13:26.522Z,56.69
2022-09-21T06:15:53.826Z,55.35
2022-09-21T06:18:20.617Z,54.26
2022-09-21T06:20:47.340Z,53.75
2022-09-21T06:23:15.592Z,52.18
2022-09-21T06:25:42.302Z,50.73
2022-09-21T06:28:11.727Z,49.98
2022-09-21T06:30:40.773Z,48.62
2022-09-21T06:33:07.913Z,47.11
2022-09-21T06:35:36.132Z,45.25
2022-09-21T06:38:07.630Z,44.11
2022-09-21T06:40:36.231Z,43.83
2022-09-21T06:43:04.153Z,42.80
2022-09-21T06:45:31.272Z,41.62
2022-09-21T06:47:59.314Z,41.33
2022-09-21T06:50:26.199Z,40.73
2022-09-21T06:52:52.934Z,39.57
2022-09-21T06:55:19.994Z,38.84
2022-09-21T06:57:47.152Z,37.77
2022-09-21T07:00:14.510Z,37.16
2022-09-21T07:02:48.146Z,36.02
2022-09-21T07:05:14.886Z,34.98
2022-09-21T07:07:41.617Z,34.60
2022-09-21T07:10:13.519Z,34.02
2022-09-21T07:12:41.701Z,34.00
2022-09-21T07:15:10.327Z,32.41
2022-09-21T07:17:39.518Z,31.24
2022-09-21T07:20:08.044Z,31.45
2022-09-21T07:22:35.715Z,30.00
2022-09-21T07:25:03.670Z,29.97
2022-09-21T07:27:32.104Z,29.53
2022-09-21T07:29:58.895Z,29.22
2022-09-21T07:32:26.123Z,28.75
2022-09-21T07:34:56.549Z,28.17
2022-09-21T07:37:25.014Z,26.98
2022-09-21T07:39:52.923Z,27.62
2022-09-21T07:42:23.018Z,27.73
2022-09-21T07:44:50.918Z,27.01
2022-09-21T07:47:17.785Z,26.52
2022-09-21T07:49:45.211Z,26.34
2022-09-21T07:52:12.374Z,27.47
2022-09-21T07:54:39.029Z,27.83
2022-09-21T07:57:24.481Z,25.63
2022-09-21T07:59:51.247Z,25.60
2022-09-21T08:02:18.082Z,25.13
2022-09-21T08:04:44.784Z,26.08
2022-09-21T08:07:13.272Z,26.85
2022-09-21T08:09:40.833Z,26.49
2022-09-21T08:12:09.107Z,26.63
2022-09-21T08:14:36.058Z,24.83
2022-09-21T08:17:02.920Z,24.60
2022-09-21T08:19:29.624Z,25.18
2022-09-21T08:21:57.908Z,23.93
2022-09-21T08:24:26.784Z,24.42
2022-09-21T08:26:55.741Z,23.37
2022-09-21T08:29:24.606Z,22.95
2022-09-21T08:31:52.701Z,22.90
2022-09-21T08:34:20.101Z,23.61
2022-09-21T08:36:47.199Z,23.65
2022-09-21T08:39:15.525Z,23.82
2022-09-21T08:42:06.108Z,23.27
2022-09-21T08:44:56.361Z,23.04
2022-09-21T08:47:38.252Z,23.36
2022-09-21T08:50:14.403Z,23.44
2022-09-21T08:52:42.059Z,23.01
2022-09-21T08:55:18.032Z,22.39
2022-09-21T08:57:44.742Z,21.98
2022-09-21T09:00:16.770Z,21.21
2022-09-21T09:03:05.006Z,22.04
2022-09-21T09:05:41.159Z,21.11
2022-09-21T09:08:45.277Z,20.88
2022-09-21T09:11:17.823Z,21.37
2022-09-21T09:14:22.731Z,21.71
2022-09-21T09:17:07.986Z,21.55
2022-09-21T09:19:43.658Z,21.05
2022-09-21T09:22:15.158Z,20.49
2022-09-21T09:24:43.092Z,20.25
2022-09-21T09:27:15.196Z,20.28
2022-09-21T09:30:02.945Z,19.81
2022-09-21T09:33:13.742Z,20.46
2022-09-21T09:35:47.982Z,21.05
2022-09-21T09:38:19.945Z,21.03
2022-09-21T09:41:17.749Z,20.39
2022-09-21T09:43:56.453Z,20.21
2022-09-21T09:46:32.145Z,19.78
2022-09-21T09:49:36.790Z,19.73
2022-09-21T09:52:04.862Z,19.79
2022-09-21T09:54:35.387Z,19.47
2022-09-21T09:57:04.574Z,18.78
2022-09-21T09:59:50.467Z,17.84
2022-09-21T10:02:27.223Z,17.38
2022-09-21T10:05:05.884Z,16.38
2022-09-21T10:07:43.026Z,16.73
2022-09-21T10:10:29.049Z,16.70
2022-09-21T10:13:18.534Z,17.28
2022-09-21T10:15:58.463Z,16.77
2022-09-21T10:18:50.068Z,16.62
2022-09-21T10:21:23.528Z,17.25
2022-09-21T10:23:54.326Z,16.05
2022-09-21T10:26:21.692Z,16.12
2022-09-21T10:28:59.582Z,16.58
2022-09-21T10:31:29.839Z,16.12
2022-09-21T10:34:16.208Z,16.71
2022-09-21T10:36:51.785Z,16.46
2022-09-21T10:39:29.269Z,15.99
2022-09-21T10:42:12.152Z,16.73
2022-09-21T10:44:46.984Z,15.67
2022-09-21T10:47:19.083Z,15.17
2022-09-21T10:50:26.259Z,15.03
2022-09-21T10:53:19.195Z,15.34
2022-09-21T10:56:14.248Z,16.00
2022-09-21T10:59:20.499Z,15.04
2022-09-21T11:01:50.115Z,15.47
2022-09-21T11:04:43.537Z,15.40
2022-09-21T11:07:27.352Z,15.54
2022-09-21T11:10:34.647Z,14.77
2022-09-21T11:13:44.230Z,14.86
2022-09-21T11:16:13.936Z,16.25
2022-09-21T11:18:53.890Z,17.24
2022-09-21T11:21:30.098Z,16.52
2022-09-21T11:24:03.247Z,16.39
2022-09-21T11:26:38.223Z,17.31
2022-09-21T11:29:13.423Z,17.04
2022-09-21T11:32:15.058Z,16.14
2022-09-21T11:35:17.493Z,16.86
2022-09-21T11:37:56.481Z,16.26
2022-09-21T11:40:32.325Z,15.68
2022-09-21T11:43:20.182Z,15.60
2022-09-21T11:46:01.403Z,15.43
2022-09-21T11:48:39.739Z,15.02
2022-09-21T11:51:15.666Z,15.08
2022-09-21T11:54:08.476Z,15.56
2022-09-21T11:56:53.533Z,15.77
2022-09-21T11:59:32.838Z,16.15
2022-09-21T12:02:44.649Z,16.27
2022-09-21T12:05:29.780Z,15.91
2022-09-21T12:08:19.580Z,16.67
2022-09-21T12:10:58.506Z,17.03
2022-09-21T12:13:46.957Z,18.76
2022-09-21T12:16:16.938Z,19.46
2022-09-21T12:18:55.069Z,21.77
2022-09-21T12:21:27.481Z,23.68
2022-09-21T12:23:57.121Z,24.33
2022-09-21T12:26:29.638Z,24.85
2022-09-21T12:29:02.811Z,24.56
2022-09-21T12:31:51.301Z,24.35
2022-09-21T12:34:22.778Z,24.56
2022-09-21T12:37:12.476Z,24.66
2022-09-21T12:39:41.867Z,25.77
2022-09-21T12:42:17.279Z,25.66
2022-09-21T12:44:55.566Z,26.79
2022-09-21T12:47:45.891Z,27.11
2022-09-21T12:50:18.447Z,27.99
2022-09-21T12:52:46.013Z,27.29
2022-09-21T12:55:17.435Z,27.66
2022-09-21T12:58:15.789Z,27.33
2022-09-21T13:01:01.603Z,27.53
2022-09-21T13:03:44.826Z,27.82
2022-09-21T13:06:41.810Z,27.36
2022-09-21T13:09:13.296Z,27.74
2022-09-21T13:12:07.767Z,28.06
2022-09-21T13:14:41.538Z,28.23
2022-09-21T13:17:20.723Z,28.52
2022-09-21T13:20:17.697Z,28.75
2022-09-21T13:23:06.734Z,28.12
2022-09-21T13:25:37.642Z,27.88
2022-09-21T13:28:24.136Z,27.95
2022-09-21T13:31:09.931Z,28.18
2022-09-21T13:34:15.695Z,27.88
2022-09-21T13:36:43.506Z,27.17
2022-09-21T13:39:18.774Z,27.39
2022-09-21T13:42:02.512Z,27.28
2022-09-21T13:44:34.707Z,27.38
2022-09-21T13:47:02.212Z,27.98
2022-09-21T13:49:34.694Z,28.70
2022-09-21T13:52:13.404Z,28.46
2022-09-21T13:54:56.953Z,29.83
2022-09-21T13:57:47.035Z,28.93
2022-09-21T14:00:14.376Z,29.18
2022-09-21T14:02:44.702Z,28.93
2022-09-21T14:05:43.190Z,29.02
2022-09-21T14:08:15.943Z,28.00
2022-09-21T14:10:56.634Z,28.15
2022-09-21T14:13:31.601Z,28.39
2022-09-21T14:16:47.459Z,28.97
2022-09-21T14:19:17.366Z,28.92
2022-09-21T14:22:07.422Z,29.17
2022-09-21T14:24:49.631Z,28.77
2022-09-21T14:27:46.104Z,29.52
2022-09-21T14:30:22.331Z,29.23
2022-09-21T14:33:01.160Z,29.42
2022-09-21T14:35:33.842Z,29.85
2022-09-21T14:38:07.999Z,30.42
2022-09-21T14:40:39.826Z,30.61
2022-09-21T14:45:57.164Z,29.45
2022-09-21T14:48:58.333Z,28.98
2022-09-21T14:51:55.678Z,29.48
2022-09-21T14:54:37.560Z,29.04
2022-09-21T14:57:23.804Z,28.88
2022-09-21T15:00:14.671Z,29.54
2022-09-21T15:02:44.566Z,29.09
2022-09-21T15:05:29.409Z,29.19
2022-09-21T15:08:39.442Z,29.43
2022-09-21T15:11:24.276Z,28.98
2022-09-21T15:14:07.546Z,28.35
2022-09-21T15:16:50.314Z,28.56
2022-09-21T15:19:28.190Z,29.18
2022-09-21T15:22:09.386Z,29.34
2022-09-21T15:24:36.237Z,29.52
2022-09-21T15:27:10.350Z,29.85
2022-09-21T15:29:38.548Z,29.75
2022-09-21T15:32:08.080Z,30.05
2022-09-21T15:34:36.402Z,30.23
2022-09-21T15:37:16.551Z,30.80
2022-09-21T15:39:43.561Z,30.60
2022-09-21T15:42:11.211Z,30.42
2022-09-21T15:44:39.436Z,30.59
2022-09-21T15:47:11.170Z,30.31
2022-09-21T15:49:39.487Z,29.69
2022-09-21T15:52:16.453Z,29.87
2022-09-21T15:54:52.680Z,29.70
2022-09-21T15:57:39.610Z,30.23
2022-09-21T16:00:18.274Z,29.27
2022-09-21T16:03:05.092Z,29.27
2022-09-21T16:05:43.112Z,29.91
2022-09-21T16:08:30.190Z,30.27
2022-09-21T16:11:16.139Z,30.43
2022-09-21T16:14:04.840Z,30.49
2022-09-21T16:16:31.911Z,31.09
2022-09-21T16:19:01.996Z,30.81
2022-09-21T16:21:40.043Z,31.04
2022-09-21T16:24:22.828Z,31.62
2022-09-21T16:27:03.049Z,31.92
2022-09-21T16:29:42.257Z,32.09
2022-09-21T16:32:18.007Z,32.34
2022-09-21T16:34:46.717Z,32.52
2022-09-21T16:37:27.476Z,32.75
2022-09-21T16:39:56.175Z,32.66
2022-09-21T16:42:28.903Z,33.24
2022-09-21T16:44:57.792Z,33.40
2022-09-21T16:47:27.291Z,33.89
2022-09-21T16:49:58.047Z,33.80
2022-09-21T16:52:28.628Z,33.80
2022-09-21T16:54:58.846Z,34.18
2022-09-21T16:57:26.622Z,34.44
2022-09-21T16:59:53.451Z,34.19
2022-09-21T17:02:23.151Z,34.91
2022-09-21T17:04:52.737Z,34.96
2022-09-21T17:07:20.009Z,35.27
2022-09-21T17:09:48.943Z,35.25
2022-09-21T17:12:22.299Z,35.40
2022-09-21T17:14:52.027Z,35.73
2022-09-21T17:17:22.274Z,35.73
2022-09-21T17:19:52.980Z,36.39
2022-09-21T17:22:22.731Z,36.54
2022-09-21T17:24:52.518Z,36.61
2022-09-21T17:27:23.189Z,36.89
2022-09-21T17:29:53.915Z,37.22
2022-09-21T17:32:25.464Z,37.52
2022-09-21T17:35:17.238Z,38.05
2022-09-21T17:37:45.122Z,38.16
2022-09-21T17:40:13.035Z,38.80
2022-09-21T17:42:43.229Z,39.30
2022-09-21T17:45:28.900Z,39.47
2022-09-21T17:47:57.320Z,39.57
2022-09-21T17:50:27.247Z,39.75
2022-09-21T17:53:16.204Z,39.92
2022-09-21T17:55:54.527Z,40.29
2022-09-21T17:59:01.676Z,40.36
2022-09-21T18:01:36.248Z,40.22
2022-09-21T18:04:05.944Z,40.50
2022-09-21T18:06:35.002Z,40.73
2022-09-21T18:09:02.625Z,40.78
2022-09-21T18:11:37.004Z,41.07
2022-09-21T18:14:22.999Z,40.88
2022-09-21T18:17:11.092Z,41.16
2022-09-21T18:20:26.180Z,41.63
2022-09-21T18:23:06.754Z,41.53
2022-09-21T18:25:50.953Z,41.28
2022-09-21T18:28:24.092Z,41.95
2022-09-21T18:31:31.100Z,41.83
2022-09-21T18:34:29.933Z,41.99
2022-09-21T18:37:45.321Z,42.27
2022-09-21T18:40:52.105Z,41.95
2022-09-21T18:43:26.553Z,42.14
2022-09-21T18:46:22.401Z,42.35
2022-09-21T18:48:51.148Z,42.71
2022-09-21T18:51:22.141Z,42.53
2022-09-21T18:54:02.187Z,42.57
2022-09-21T18:56:34.819Z,42.72
2022-09-21T18:59:02.793Z,42.98
2022-09-21T19:01:33.001Z,43.23
2022-09-21T19:04:01.425Z,43.40
2022-09-21T19:06:55.030Z,43.21
2022-09-21T19:09:45.978Z,43.30
2022-09-21T19:12:30.200Z,42.82
2022-09-21T19:18:21.342Z,43.29
2022-09-21T19:21:00.206Z,43.59
2022-09-21T19:23:58.865Z,43.91
2022-09-21T19:26:38.928Z,44.00
2022-09-21T19:29:33.541Z,44.10
2022-09-21T19:32:02.219Z,44.27
2022-09-21T19:34:30.196Z,43.84
2022-09-21T19:37:07.019Z,44.79
2022-09-21T19:39:37.232Z,44.98
2022-09-21T19:42:03.905Z,45.19
2022-09-21T19:44:51.517Z,45.05
2022-09-21T19:47:31.535Z,45.43
2022-09-21T19:50:20.808Z,45.40
2022-09-21T19:52:48.007Z,45.92
2022-09-21T19:55:41.156Z,45.48
2022-09-21T19:58:27.809Z,45.70
2022-09-21T20:00:56.746Z,46.09
2022-09-21T20:03:31.751Z,45.87
2022-09-21T20:06:19.310Z,46.32
2022-09-21T20:08:55.226Z,46.22
2022-09-21T20:11:41.545Z,46.51
2022-09-21T20:14:19.298Z,46.83
2022-09-21T20:16:50.130Z,47.15
2022-09-21T20:19:33.337Z,47.77
2022-09-21T20:22:09.025Z,47.71
2022-09-21T20:25:00.212Z,47.49
2022-09-21T20:27:34.921Z,47.67
2022-09-21T20:30:06.082Z,47.06
2022-09-21T20:32:35.350Z,47.35
2022-09-21T20:35:02.174Z,46.92
2022-09-21T20:37:31.202Z,47.57
2022-09-21T20:40:01.677Z,47.20
2022-09-21T20:42:28.923Z,47.39
2022-09-21T20:44:58.881Z,47.73
2022-09-21T20:47:28.973Z,47.72
2022-09-21T20:50:00.503Z,47.16
2022-09-21T20:52:27.219Z,47.01
2022-09-21T20:54:53.869Z,46.65
2022-09-21T20:57:21.400Z,47.12
2022-09-21T20:59:48.118Z,47.48
2022-09-21T21:02:16.602Z,47.52
2022-09-21T21:04:43.314Z,47.54
2022-09-21T21:07:10.125Z,47.88
2022-09-21T21:09:37.723Z,47.51
2022-09-21T21:12:05.251Z,47.70
2022-09-21T21:14:34.692Z,47.74
2022-09-21T21:17:02.676Z,48.03
2022-09-21T21:19:32.223Z,48.37
2022-09-21T21:21:59.913Z,48.31
2022-09-21T21:24:40.264Z,48.41
2022-09-21T21:27:19.031Z,48.24
2022-09-21T21:29:47.325Z,48.58
2022-09-21T21:32:15.133Z,48.54
2022-09-21T21:34:45.223Z,48.38
2022-09-21T21:37:16.486Z,48.64
2022-09-21T21:39:43.457Z,48.63
2022-09-21T21:42:10.506Z,48.88
2022-09-21T21:44:37.499Z,49.44
2022-09-21T21:47:27.447Z,49.18
2022-09-21T21:49:52.396Z,48.95
2022-09-21T21:52:19.115Z,49.48
2022-09-21T21:54:45.854Z,49.53
2022-09-21T21:57:15.089Z,49.82
2022-09-21T21:59:43.755Z,49.46
2022-09-21T22:02:10.608Z,49.66
2022-09-21T22:04:39.189Z,49.61
2022-09-21T22:07:07.165Z,50.16
2022-09-21T22:09:35.472Z,50.51
2022-09-21T22:12:03.720Z,50.18
2022-09-21T22:14:32.779Z,49.83
2022-09-21T22:17:01.195Z,50.30
2022-09-21T22:19:28.313Z,50.32
2022-09-21T22:21:55.588Z,50.16
2022-09-21T22:24:22.642Z,50.28
2022-09-21T22:26:49.321Z,50.27
2022-09-21T22:29:18.037Z,50.12
2022-09-21T22:31:49.445Z,50.34
2022-09-21T22:34:16.663Z,50.46
2022-09-21T22:36:44.013Z,50.93
2022-09-21T22:39:13.907Z,51.20
2022-09-21T22:41:43.703Z,51.52
2022-09-21T22:44:13.954Z,51.92
2022-09-21T22:46:44.987Z,52.14
2022-09-21T22:49:11.690Z,52.14
2022-09-21T22:51:38.423Z,52.05
2022-09-21T22:54:05.451Z,52.11
2022-09-21T22:56:33.281Z,51.84
2022-09-21T22:59:04.449Z,52.07
2022-09-21T23:01:40.741Z,52.46
2022-09-21T23:04:14.073Z,52.50
2022-09-21T23:06:43.635Z,52.79
2022-09-21T23:09:16.843Z,52.91
2022-09-21T23:11:47.529Z,53.18
2022-09-21T23:14:15.990Z,53.31
2022-09-21T23:16:43.330Z,53.20
2022-09-21T23:19:15.459Z,53.34
2022-09-21T23:21:49.622Z,53.41
2022-09-21T23:24:17.584Z,53.37
2022-09-21T23:26:50.642Z,53.41
2022-09-21T23:29:20.909Z,53.21
2022-09-21T23:31:47.701Z,53.25
2022-09-21T23:34:15.495Z,53.03
2022-09-21T23:36:46.971Z,52.78
2022-09-21T23:39:16.166Z,52.85
2022-09-21T23:41:43.832Z,53.09
2022-09-21T23:44:12.125Z,52.47
2022-09-21T23:46:40.740Z,52.72
2022-09-21T23:49:07.865Z,52.10
2022-09-21T23:51:40.655Z,52.00
2022-09-21T23:54:07.867Z,52.13
2022-09-21T23:56:35.252Z,52.03
2022-09-21T23:59:02.417Z,51.98
